sensor_id;sensor_type;location;lat;lon;timestamp;P1;durP1;ratioP1;P2;durP2;ratioP2
27489;SDS011;14925;51.026;13.752;2023-07-31T00:00:28;5.28;;;1.27;;
27489;SDS011;14925;51.026;13.752;2023-07-31T00:02:54;8.27;;;1.88;;
27489;SDS011;14925;51.026;13.752;2023-07-31T00:05:20;6.32;;;1.60;;
27489;SDS011;14925;51.026;13.752;2023-07-31T00:07:45;9.20;;;1.85;;
27489;SDS011;14925;51.026;13.752;2023-07-31T00:10:10;5.63;;;1.70;;
27489;SDS011;14925;51.026;13.752;2023-07-31T00:12:37;8.15;;;1.77;;
27489;SDS011;14925;51.026;13.752;2023-07-31T00:15:03;5.65;;;1.52;;
27489;SDS011;14925;51.026;13.752;2023-07-31T00:17:29;4.10;;;1.50;;
27489;SDS011;14925;51.026;13.752;2023-07-31T00:19:54;7.82;;;1.92;;
27489;SDS011;14925;51.026;13.752;2023-07-31T00:22:20;7.05;;;1.90;;
27489;SDS011;14925;51.026;13.752;2023-07-31T00:24:45;6.82;;;1.70;;
27489;SDS011;14925;51.026;13.752;2023-07-31T00:27:11;4.60;;;1.70;;
27489;SDS011;14925;51.026;13.752;2023-07-31T00:29:36;6.43;;;1.75;;
27489;SDS011;14925;51.026;13.752;2023-07-31T00:32:01;6.43;;;1.70;;
27489;SDS011;14925;51.026;13.752;2023-07-31T00:34:27;5.15;;;1.48;;
27489;SDS011;14925;51.026;13.752;2023-07-31T00:36:52;6.55;;;1.65;;
27489;SDS011;14925;51.026;13.752;2023-07-31T00:39:18;3.90;;;1.30;;
27489;SDS011;14925;51.026;13.752;2023-07-31T00:41:43;5.05;;;1.50;;
27489;SDS011;14925;51.026;13.752;2023-07-31T00:44:09;5.78;;;1.30;;
27489;SDS011;14925;51.026;13.752;2023-07-31T00:46:34;8.55;;;1.77;;
27489;SDS011;14925;51.026;13.752;2023-07-31T00:48:59;6.30;;;1.63;;
27489;SDS011;14925;51.026;13.752;2023-07-31T00:51:25;6.10;;;1.77;;
27489;SDS011;14925;51.026;13.752;2023-07-31T00:53:50;3.83;;;1.70;;
27489;SDS011;14925;51.026;13.752;2023-07-31T00:56:16;6.65;;;1.88;;
27489;SDS011;14925;51.026;13.752;2023-07-31T00:58:41;5.70;;;1.70;;
27489;SDS011;14925;51.026;13.752;2023-07-31T01:01:06;5.05;;;1.88;;
27489;SDS011;14925;51.026;13.752;2023-07-31T01:03:32;4.95;;;1.95;;
27489;SDS011;14925;51.026;13.752;2023-07-31T01:09:02;7.47;;;1.85;;
27489;SDS011;14925;51.026;13.752;2023-07-31T01:11:34;5.13;;;2.00;;
27489;SDS011;14925;51.026;13.752;2023-07-31T01:14:01;7.53;;;1.83;;
27489;SDS011;14925;51.026;13.752;2023-07-31T01:16:27;6.47;;;1.90;;
27489;SDS011;14925;51.026;13.752;2023-07-31T01:18:52;6.95;;;1.88;;
27489;SDS011;14925;51.026;13.752;2023-07-31T01:26:43;5.43;;;1.75;;
27489;SDS011;14925;51.026;13.752;2023-07-31T01:29:17;6.18;;;1.60;;
27489;SDS011;14925;51.026;13.752;2023-07-31T01:31:48;7.10;;;1.77;;
27489;SDS011;14925;51.026;13.752;2023-07-31T01:34:15;4.88;;;1.70;;
27489;SDS011;14925;51.026;13.752;2023-07-31T01:36:42;5.13;;;1.52;;
27489;SDS011;14925;51.026;13.752;2023-07-31T01:39:08;5.55;;;1.67;;
27489;SDS011;14925;51.026;13.752;2023-07-31T01:41:33;8.70;;;1.65;;
27489;SDS011;14925;51.026;13.752;2023-07-31T01:44:00;5.32;;;1.70;;
27489;SDS011;14925;51.026;13.752;2023-07-31T01:46:25;7.45;;;1.80;;
27489;SDS011;14925;51.026;13.752;2023-07-31T01:48:51;4.45;;;1.75;;
27489;SDS011;14925;51.026;13.752;2023-07-31T01:51:16;4.80;;;1.58;;
27489;SDS011;14925;51.026;13.752;2023-07-31T01:53:41;5.25;;;1.70;;
27489;SDS011;14925;51.026;13.752;2023-07-31T01:56:07;7.07;;;1.60;;
27489;SDS011;14925;51.026;13.752;2023-07-31T01:58:32;7.15;;;1.73;;
27489;SDS011;14925;51.026;13.752;2023-07-31T02:00:57;6.15;;;1.70;;
27489;SDS011;14925;51.026;13.752;2023-07-31T02:03:23;7.10;;;1.70;;
27489;SDS011;14925;51.026;13.752;2023-07-31T02:05:48;4.47;;;1.30;;
27489;SDS011;14925;51.026;13.752;2023-07-31T02:08:14;6.63;;;2.17;;
27489;SDS011;14925;51.026;13.752;2023-07-31T02:10:40;7.55;;;1.90;;
27489;SDS011;14925;51.026;13.752;2023-07-31T02:13:06;8.00;;;1.88;;
27489;SDS011;14925;51.026;13.752;2023-07-31T02:15:31;6.15;;;1.70;;
27489;SDS011;14925;51.026;13.752;2023-07-31T02:17:57;5.47;;;1.60;;
27489;SDS011;14925;51.026;13.752;2023-07-31T02:20:22;4.43;;;1.60;;
27489;SDS011;14925;51.026;13.752;2023-07-31T02:22:48;5.47;;;1.70;;
27489;SDS011;14925;51.026;13.752;2023-07-31T02:25:13;6.18;;;1.50;;
27489;SDS011;14925;51.026;13.752;2023-07-31T02:27:39;4.20;;;1.60;;
27489;SDS011;14925;51.026;13.752;2023-07-31T02:30:04;9.02;;;1.80;;
27489;SDS011;14925;51.026;13.752;2023-07-31T02:32:30;4.22;;;1.60;;
27489;SDS011;14925;51.026;13.752;2023-07-31T02:34:55;4.85;;;1.65;;
27489;SDS011;14925;51.026;13.752;2023-07-31T02:37:21;7.63;;;1.70;;
27489;SDS011;14925;51.026;13.752;2023-07-31T02:39:46;6.28;;;1.70;;
27489;SDS011;14925;51.026;13.752;2023-07-31T02:42:12;6.22;;;1.65;;
27489;SDS011;14925;51.026;13.752;2023-07-31T02:44:38;4.05;;;1.48;;
27489;SDS011;14925;51.026;13.752;2023-07-31T02:47:03;6.53;;;1.60;;
27489;SDS011;14925;51.026;13.752;2023-07-31T02:49:29;5.43;;;1.60;;
27489;SDS011;14925;51.026;13.752;2023-07-31T02:51:54;5.38;;;1.67;;
27489;SDS011;14925;51.026;13.752;2023-07-31T02:54:19;5.80;;;1.35;;
27489;SDS011;14925;51.026;13.752;2023-07-31T02:56:46;7.53;;;1.83;;
27489;SDS011;14925;51.026;13.752;2023-07-31T02:59:12;5.55;;;1.52;;
27489;SDS011;14925;51.026;13.752;2023-07-31T03:01:37;7.65;;;2.03;;
27489;SDS011;14925;51.026;13.752;2023-07-31T03:04:03;4.13;;;1.67;;
27489;SDS011;14925;51.026;13.752;2023-07-31T03:06:28;7.28;;;1.85;;
27489;SDS011;14925;51.026;13.752;2023-07-31T03:08:54;5.05;;;1.77;;
27489;SDS011;14925;51.026;13.752;2023-07-31T03:11:19;6.97;;;1.73;;
27489;SDS011;14925;51.026;13.752;2023-07-31T03:13:45;5.00;;;1.70;;
27489;SDS011;14925;51.026;13.752;2023-07-31T03:16:10;4.65;;;1.73;;
27489;SDS011;14925;51.026;13.752;2023-07-31T03:18:35;6.00;;;1.75;;
27489;SDS011;14925;51.026;13.752;2023-07-31T03:21:01;3.65;;;1.65;;
27489;SDS011;14925;51.026;13.752;2023-07-31T03:23:26;5.30;;;1.58;;
27489;SDS011;14925;51.026;13.752;2023-07-31T03:25:58;3.55;;;1.63;;
27489;SDS011;14925;51.026;13.752;2023-07-31T03:28:25;5.90;;;1.70;;
27489;SDS011;14925;51.026;13.752;2023-07-31T03:30:50;5.40;;;1.52;;
27489;SDS011;14925;51.026;13.752;2023-07-31T03:33:16;6.13;;;1.70;;
27489;SDS011;14925;51.026;13.752;2023-07-31T03:35:42;5.00;;;1.70;;
27489;SDS011;14925;51.026;13.752;2023-07-31T03:38:07;11.48;;;1.70;;
27489;SDS011;14925;51.026;13.752;2023-07-31T03:40:32;6.22;;;1.88;;
27489;SDS011;14925;51.026;13.752;2023-07-31T03:42:58;3.53;;;1.60;;
27489;SDS011;14925;51.026;13.752;2023-07-31T03:45:23;7.20;;;2.00;;
27489;SDS011;14925;51.026;13.752;2023-07-31T03:47:48;5.45;;;2.00;;
27489;SDS011;14925;51.026;13.752;2023-07-31T03:50:14;4.60;;;1.75;;
27489;SDS011;14925;51.026;13.752;2023-07-31T03:52:40;5.13;;;1.48;;
27489;SDS011;14925;51.026;13.752;2023-07-31T03:55:06;6.88;;;1.88;;
27489;SDS011;14925;51.026;13.752;2023-07-31T03:57:31;7.00;;;1.88;;
27489;SDS011;14925;51.026;13.752;2023-07-31T03:59:57;6.03;;;2.45;;
27489;SDS011;14925;51.026;13.752;2023-07-31T04:02:23;6.20;;;2.10;;
27489;SDS011;14925;51.026;13.752;2023-07-31T04:04:48;9.45;;;2.10;;
27489;SDS011;14925;51.026;13.752;2023-07-31T04:07:13;4.90;;;1.90;;
27489;SDS011;14925;51.026;13.752;2023-07-31T04:09:42;3.95;;;1.83;;
27489;SDS011;14925;51.026;13.752;2023-07-31T04:12:07;4.80;;;2.22;;
27489;SDS011;14925;51.026;13.752;2023-07-31T04:14:33;5.03;;;1.95;;
27489;SDS011;14925;51.026;13.752;2023-07-31T04:16:58;7.03;;;2.10;;
27489;SDS011;14925;51.026;13.752;2023-07-31T04:19:24;7.18;;;2.58;;
27489;SDS011;14925;51.026;13.752;2023-07-31T04:21:49;6.90;;;2.60;;
27489;SDS011;14925;51.026;13.752;2023-07-31T04:24:14;5.88;;;2.55;;
27489;SDS011;14925;51.026;13.752;2023-07-31T04:26:40;6.70;;;2.40;;
27489;SDS011;14925;51.026;13.752;2023-07-31T04:29:05;8.25;;;2.00;;
27489;SDS011;14925;51.026;13.752;2023-07-31T04:31:34;7.40;;;2.25;;
27489;SDS011;14925;51.026;13.752;2023-07-31T04:33:59;5.43;;;2.40;;
27489;SDS011;14925;51.026;13.752;2023-07-31T04:36:24;6.72;;;2.33;;
27489;SDS011;14925;51.026;13.752;2023-07-31T04:38:50;9.45;;;2.75;;
27489;SDS011;14925;51.026;13.752;2023-07-31T04:41:15;8.55;;;2.30;;
27489;SDS011;14925;51.026;13.752;2023-07-31T04:43:41;6.28;;;2.40;;
27489;SDS011;14925;51.026;13.752;2023-07-31T04:46:06;5.88;;;2.40;;
27489;SDS011;14925;51.026;13.752;2023-07-31T04:48:31;6.75;;;2.95;;
27489;SDS011;14925;51.026;13.752;2023-07-31T04:50:57;6.63;;;2.60;;
27489;SDS011;14925;51.026;13.752;2023-07-31T04:53:22;9.23;;;2.55;;
27489;SDS011;14925;51.026;13.752;2023-07-31T04:55:47;8.63;;;2.50;;
27489;SDS011;14925;51.026;13.752;2023-07-31T04:58:13;8.27;;;2.80;;
27489;SDS011;14925;51.026;13.752;2023-07-31T05:00:38;8.52;;;2.75;;
27489;SDS011;14925;51.026;13.752;2023-07-31T05:03:03;9.57;;;2.67;;
27489;SDS011;14925;51.026;13.752;2023-07-31T05:05:29;8.45;;;2.70;;
27489;SDS011;14925;51.026;13.752;2023-07-31T05:07:55;5.63;;;2.38;;
27489;SDS011;14925;51.026;13.752;2023-07-31T05:10:20;7.75;;;2.33;;
27489;SDS011;14925;51.026;13.752;2023-07-31T05:12:46;7.75;;;2.40;;
27489;SDS011;14925;51.026;13.752;2023-07-31T05:15:11;7.20;;;2.45;;
27489;SDS011;14925;51.026;13.752;2023-07-31T05:17:36;6.65;;;2.80;;
27489;SDS011;14925;51.026;13.752;2023-07-31T05:20:02;5.63;;;2.67;;
27489;SDS011;14925;51.026;13.752;2023-07-31T05:22:27;8.50;;;2.47;;
27489;SDS011;14925;51.026;13.752;2023-07-31T05:24:53;6.38;;;2.15;;
27489;SDS011;14925;51.026;13.752;2023-07-31T05:27:19;5.47;;;2.42;;
27489;SDS011;14925;51.026;13.752;2023-07-31T05:29:44;4.95;;;2.30;;
27489;SDS011;14925;51.026;13.752;2023-07-31T05:32:10;6.43;;;2.40;;
27489;SDS011;14925;51.026;13.752;2023-07-31T05:34:36;6.70;;;2.60;;
27489;SDS011;14925;51.026;13.752;2023-07-31T05:37:01;6.53;;;2.30;;
27489;SDS011;14925;51.026;13.752;2023-07-31T05:39:26;4.50;;;2.13;;
27489;SDS011;14925;51.026;13.752;2023-07-31T05:41:52;7.28;;;2.28;;
27489;SDS011;14925;51.026;13.752;2023-07-31T05:44:17;6.82;;;2.63;;
27489;SDS011;14925;51.026;13.752;2023-07-31T05:46:42;3.97;;;2.00;;
27489;SDS011;14925;51.026;13.752;2023-07-31T05:49:08;5.88;;;2.28;;
27489;SDS011;14925;51.026;13.752;2023-07-31T05:51:33;6.97;;;2.47;;
27489;SDS011;14925;51.026;13.752;2023-07-31T05:53:58;7.00;;;2.38;;
27489;SDS011;14925;51.026;13.752;2023-07-31T05:56:24;4.22;;;2.20;;
27489;SDS011;14925;51.026;13.752;2023-07-31T05:58:49;6.25;;;2.38;;
27489;SDS011;14925;51.026;13.752;2023-07-31T06:01:16;8.07;;;2.53;;
27489;SDS011;14925;51.026;13.752;2023-07-31T06:03:42;4.60;;;2.13;;
27489;SDS011;14925;51.026;13.752;2023-07-31T06:06:07;9.68;;;2.63;;
27489;SDS011;14925;51.026;13.752;2023-07-31T06:08:33;5.18;;;2.05;;
27489;SDS011;14925;51.026;13.752;2023-07-31T06:10:58;5.18;;;2.42;;
27489;SDS011;14925;51.026;13.752;2023-07-31T06:13:23;6.47;;;2.28;;
27489;SDS011;14925;51.026;13.752;2023-07-31T06:15:49;4.75;;;2.30;;
27489;SDS011;14925;51.026;13.752;2023-07-31T06:18:14;5.20;;;2.10;;
27489;SDS011;14925;51.026;13.752;2023-07-31T06:20:39;5.57;;;2.30;;
27489;SDS011;14925;51.026;13.752;2023-07-31T06:23:05;8.50;;;2.30;;
27489;SDS011;14925;51.026;13.752;2023-07-31T06:25:31;6.40;;;2.17;;
27489;SDS011;14925;51.026;13.752;2023-07-31T06:27:56;6.07;;;2.45;;
27489;SDS011;14925;51.026;13.752;2023-07-31T06:30:22;9.95;;;2.30;;
27489;SDS011;14925;51.026;13.752;2023-07-31T06:32:47;6.32;;;2.10;;
27489;SDS011;14925;51.026;13.752;2023-07-31T06:35:12;5.38;;;2.13;;
27489;SDS011;14925;51.026;13.752;2023-07-31T06:37:38;4.78;;;2.13;;
27489;SDS011;14925;51.026;13.752;2023-07-31T06:40:05;8.30;;;2.33;;
27489;SDS011;14925;51.026;13.752;2023-07-31T06:42:33;5.05;;;1.95;;
27489;SDS011;14925;51.026;13.752;2023-07-31T06:45:00;4.68;;;2.50;;
27489;SDS011;14925;51.026;13.752;2023-07-31T06:47:25;6.22;;;2.40;;
27489;SDS011;14925;51.026;13.752;2023-07-31T06:49:55;7.32;;;2.08;;
27489;SDS011;14925;51.026;13.752;2023-07-31T06:52:21;5.45;;;2.40;;
27489;SDS011;14925;51.026;13.752;2023-07-31T06:54:53;6.60;;;2.22;;
27489;SDS011;14925;51.026;13.752;2023-07-31T06:57:25;7.25;;;2.30;;
27489;SDS011;14925;51.026;13.752;2023-07-31T06:59:50;5.85;;;2.60;;
27489;SDS011;14925;51.026;13.752;2023-07-31T07:02:16;7.85;;;2.33;;
27489;SDS011;14925;51.026;13.752;2023-07-31T07:04:41;7.40;;;2.28;;
27489;SDS011;14925;51.026;13.752;2023-07-31T07:07:07;5.68;;;2.10;;
27489;SDS011;14925;51.026;13.752;2023-07-31T07:09:32;4.95;;;2.47;;
27489;SDS011;14925;51.026;13.752;2023-07-31T07:11:57;7.15;;;2.40;;
27489;SDS011;14925;51.026;13.752;2023-07-31T07:14:23;7.22;;;2.47;;
27489;SDS011;14925;51.026;13.752;2023-07-31T07:16:50;5.70;;;2.20;;
27489;SDS011;14925;51.026;13.752;2023-07-31T07:19:16;8.13;;;2.47;;
27489;SDS011;14925;51.026;13.752;2023-07-31T07:21:41;7.47;;;2.55;;
27489;SDS011;14925;51.026;13.752;2023-07-31T07:24:07;6.10;;;2.38;;
27489;SDS011;14925;51.026;13.752;2023-07-31T07:26:32;5.38;;;2.10;;
27489;SDS011;14925;51.026;13.752;2023-07-31T07:28:57;7.85;;;2.33;;
27489;SDS011;14925;51.026;13.752;2023-07-31T07:31:23;8.68;;;2.20;;
27489;SDS011;14925;51.026;13.752;2023-07-31T07:33:48;5.50;;;2.42;;
27489;SDS011;14925;51.026;13.752;2023-07-31T07:36:14;8.70;;;2.58;;
27489;SDS011;14925;51.026;13.752;2023-07-31T07:38:39;5.85;;;2.60;;
27489;SDS011;14925;51.026;13.752;2023-07-31T07:41:05;7.63;;;2.40;;
27489;SDS011;14925;51.026;13.752;2023-07-31T07:43:30;6.53;;;2.50;;
27489;SDS011;14925;51.026;13.752;2023-07-31T07:45:55;4.68;;;2.45;;
27489;SDS011;14925;51.026;13.752;2023-07-31T07:48:21;5.80;;;2.55;;
27489;SDS011;14925;51.026;13.752;2023-07-31T07:50:47;4.00;;;2.15;;
27489;SDS011;14925;51.026;13.752;2023-07-31T07:53:13;5.47;;;2.30;;
27489;SDS011;14925;51.026;13.752;2023-07-31T07:55:39;4.97;;;2.22;;
27489;SDS011;14925;51.026;13.752;2023-07-31T07:58:04;8.52;;;2.78;;
27489;SDS011;14925;51.026;13.752;2023-07-31T08:00:29;5.57;;;2.40;;
27489;SDS011;14925;51.026;13.752;2023-07-31T08:02:55;7.40;;;2.47;;
27489;SDS011;14925;51.026;13.752;2023-07-31T08:05:22;6.25;;;2.63;;
27489;SDS011;14925;51.026;13.752;2023-07-31T08:07:47;4.75;;;2.20;;
27489;SDS011;14925;51.026;13.752;2023-07-31T08:10:13;7.45;;;2.58;;
27489;SDS011;14925;51.026;13.752;2023-07-31T08:12:38;6.28;;;2.50;;
27489;SDS011;14925;51.026;13.752;2023-07-31T08:15:03;7.28;;;2.40;;
27489;SDS011;14925;51.026;13.752;2023-07-31T08:17:29;5.32;;;2.70;;
27489;SDS011;14925;51.026;13.752;2023-07-31T08:19:55;5.38;;;2.80;;
27489;SDS011;14925;51.026;13.752;2023-07-31T08:22:23;5.40;;;2.38;;
27489;SDS011;14925;51.026;13.752;2023-07-31T08:24:48;6.63;;;2.30;;
27489;SDS011;14925;51.026;13.752;2023-07-31T08:27:13;5.93;;;2.33;;
27489;SDS011;14925;51.026;13.752;2023-07-31T08:29:39;7.93;;;2.88;;
27489;SDS011;14925;51.026;13.752;2023-07-31T08:32:04;4.85;;;2.47;;
27489;SDS011;14925;51.026;13.752;2023-07-31T08:34:30;7.93;;;2.88;;
27489;SDS011;14925;51.026;13.752;2023-07-31T08:36:55;7.43;;;2.60;;
27489;SDS011;14925;51.026;13.752;2023-07-31T08:39:21;9.63;;;2.75;;
27489;SDS011;14925;51.026;13.752;2023-07-31T08:41:47;9.20;;;2.65;;
27489;SDS011;14925;51.026;13.752;2023-07-31T08:44:12;5.07;;;2.53;;
27489;SDS011;14925;51.026;13.752;2023-07-31T08:46:39;4.93;;;2.13;;
27489;SDS011;14925;51.026;13.752;2023-07-31T08:49:05;6.38;;;2.45;;
27489;SDS011;14925;51.026;13.752;2023-07-31T08:51:34;8.20;;;2.92;;
27489;SDS011;14925;51.026;13.752;2023-07-31T08:54:00;6.75;;;2.63;;
27489;SDS011;14925;51.026;13.752;2023-07-31T08:56:26;6.85;;;2.50;;
27489;SDS011;14925;51.026;13.752;2023-07-31T08:58:52;5.43;;;2.65;;
27489;SDS011;14925;51.026;13.752;2023-07-31T09:01:18;7.20;;;2.88;;
27489;SDS011;14925;51.026;13.752;2023-07-31T09:03:43;7.32;;;2.58;;
27489;SDS011;14925;51.026;13.752;2023-07-31T09:06:09;7.20;;;2.88;;
27489;SDS011;14925;51.026;13.752;2023-07-31T09:08:35;5.50;;;2.83;;
27489;SDS011;14925;51.026;13.752;2023-07-31T09:11:01;7.85;;;2.80;;
27489;SDS011;14925;51.026;13.752;2023-07-31T09:13:30;6.25;;;2.67;;
27489;SDS011;14925;51.026;13.752;2023-07-31T09:15:56;6.80;;;2.90;;
27489;SDS011;14925;51.026;13.752;2023-07-31T09:18:21;9.88;;;3.05;;
27489;SDS011;14925;51.026;13.752;2023-07-31T09:21:03;10.20;;;2.78;;
27489;SDS011;14925;51.026;13.752;2023-07-31T09:23:42;9.65;;;2.88;;
27489;SDS011;14925;51.026;13.752;2023-07-31T09:26:09;9.00;;;2.58;;
27489;SDS011;14925;51.026;13.752;2023-07-31T09:28:34;7.50;;;2.78;;
27489;SDS011;14925;51.026;13.752;2023-07-31T09:31:00;5.85;;;2.70;;
27489;SDS011;14925;51.026;13.752;2023-07-31T09:33:25;6.82;;;3.00;;
27489;SDS011;14925;51.026;13.752;2023-07-31T09:35:50;4.95;;;2.60;;
27489;SDS011;14925;51.026;13.752;2023-07-31T09:38:16;6.38;;;2.65;;
27489;SDS011;14925;51.026;13.752;2023-07-31T09:40:43;5.18;;;2.65;;
27489;SDS011;14925;51.026;13.752;2023-07-31T09:43:10;6.65;;;2.75;;
27489;SDS011;14925;51.026;13.752;2023-07-31T09:45:38;5.03;;;2.58;;
27489;SDS011;14925;51.026;13.752;2023-07-31T09:48:08;7.88;;;2.60;;
27489;SDS011;14925;51.026;13.752;2023-07-31T09:50:36;8.05;;;2.80;;
27489;SDS011;14925;51.026;13.752;2023-07-31T09:53:03;5.80;;;2.22;;
27489;SDS011;14925;51.026;13.752;2023-07-31T09:55:28;7.88;;;2.95;;
27489;SDS011;14925;51.026;13.752;2023-07-31T09:57:54;5.30;;;2.58;;
27489;SDS011;14925;51.026;13.752;2023-07-31T10:00:22;6.80;;;2.97;;
27489;SDS011;14925;51.026;13.752;2023-07-31T10:02:50;6.80;;;2.60;;
27489;SDS011;14925;51.026;13.752;2023-07-31T10:05:16;8.40;;;2.88;;
27489;SDS011;14925;51.026;13.752;2023-07-31T10:07:42;6.07;;;2.70;;
27489;SDS011;14925;51.026;13.752;2023-07-31T10:10:10;5.72;;;2.67;;
27489;SDS011;14925;51.026;13.752;2023-07-31T10:12:36;6.55;;;2.85;;
27489;SDS011;14925;51.026;13.752;2023-07-31T10:15:02;6.45;;;2.60;;
27489;SDS011;14925;51.026;13.752;2023-07-31T10:17:29;6.05;;;2.55;;
27489;SDS011;14925;51.026;13.752;2023-07-31T10:19:56;5.65;;;2.75;;
27489;SDS011;14925;51.026;13.752;2023-07-31T10:22:24;6.00;;;2.88;;
27489;SDS011;14925;51.026;13.752;2023-07-31T10:24:50;4.72;;;2.47;;
27489;SDS011;14925;51.026;13.752;2023-07-31T10:27:15;8.07;;;2.60;;
27489;SDS011;14925;51.026;13.752;2023-07-31T10:29:41;7.32;;;2.90;;
27489;SDS011;14925;51.026;13.752;2023-07-31T10:32:09;5.68;;;2.83;;
27489;SDS011;14925;51.026;13.752;2023-07-31T10:34:38;5.38;;;2.50;;
27489;SDS011;14925;51.026;13.752;2023-07-31T10:40:00;5.78;;;2.60;;
27489;SDS011;14925;51.026;13.752;2023-07-31T10:42:30;7.75;;;2.95;;
27489;SDS011;14925;51.026;13.752;2023-07-31T10:45:01;6.80;;;2.80;;
27489;SDS011;14925;51.026;13.752;2023-07-31T10:47:31;3.92;;;2.50;;
27489;SDS011;14925;51.026;13.752;2023-07-31T10:52:37;2.88;;;2.38;;
27489;SDS011;14925;51.026;13.752;2023-07-31T10:55:24;3.75;;;2.15;;
27489;SDS011;14925;51.026;13.752;2023-07-31T10:58:07;4.45;;;2.65;;
27489;SDS011;14925;51.026;13.752;2023-07-31T11:00:34;5.07;;;2.55;;
27489;SDS011;14925;51.026;13.752;2023-07-31T11:05:41;5.30;;;2.80;;
27489;SDS011;14925;51.026;13.752;2023-07-31T11:11:11;4.45;;;2.30;;
27489;SDS011;14925;51.026;13.752;2023-07-31T11:13:44;4.75;;;2.50;;
27489;SDS011;14925;51.026;13.752;2023-07-31T11:16:11;4.55;;;2.50;;
27489;SDS011;14925;51.026;13.752;2023-07-31T11:18:41;6.80;;;2.40;;
27489;SDS011;14925;51.026;13.752;2023-07-31T11:21:08;6.28;;;2.63;;
27489;SDS011;14925;51.026;13.752;2023-07-31T11:23:40;3.78;;;2.70;;
27489;SDS011;14925;51.026;13.752;2023-07-31T11:26:06;5.35;;;2.20;;
27489;SDS011;14925;51.026;13.752;2023-07-31T11:28:33;4.93;;;2.53;;
27489;SDS011;14925;51.026;13.752;2023-07-31T11:30:59;5.20;;;2.17;;
27489;SDS011;14925;51.026;13.752;2023-07-31T11:33:25;6.00;;;2.40;;
27489;SDS011;14925;51.026;13.752;2023-07-31T11:35:50;5.25;;;2.58;;
27489;SDS011;14925;51.026;13.752;2023-07-31T11:38:25;4.47;;;2.45;;
27489;SDS011;14925;51.026;13.752;2023-07-31T11:40:53;4.85;;;2.22;;
27489;SDS011;14925;51.026;13.752;2023-07-31T11:43:19;7.00;;;2.22;;
27489;SDS011;14925;51.026;13.752;2023-07-31T11:45:49;5.00;;;2.10;;
27489;SDS011;14925;51.026;13.752;2023-07-31T11:48:20;5.72;;;2.25;;
27489;SDS011;14925;51.026;13.752;2023-07-31T11:50:57;5.43;;;2.40;;
27489;SDS011;14925;51.026;13.752;2023-07-31T11:56:09;4.45;;;1.75;;
27489;SDS011;14925;51.026;13.752;2023-07-31T11:58:36;4.65;;;2.20;;
27489;SDS011;14925;51.026;13.752;2023-07-31T12:01:02;4.60;;;2.03;;
27489;SDS011;14925;51.026;13.752;2023-07-31T12:03:28;3.33;;;1.98;;
27489;SDS011;14925;51.026;13.752;2023-07-31T12:05:53;3.05;;;2.00;;
27489;SDS011;14925;51.026;13.752;2023-07-31T12:08:25;2.53;;;1.80;;
27489;SDS011;14925;51.026;13.752;2023-07-31T12:10:51;3.90;;;2.03;;
27489;SDS011;14925;51.026;13.752;2023-07-31T12:13:24;3.20;;;1.95;;
27489;SDS011;14925;51.026;13.752;2023-07-31T12:15:58;3.45;;;1.85;;
27489;SDS011;14925;51.026;13.752;2023-07-31T12:18:25;2.28;;;1.70;;
27489;SDS011;14925;51.026;13.752;2023-07-31T12:20:55;3.72;;;1.73;;
27489;SDS011;14925;51.026;13.752;2023-07-31T12:23:23;4.90;;;1.65;;
27489;SDS011;14925;51.026;13.752;2023-07-31T12:28:49;4.03;;;2.00;;
27489;SDS011;14925;51.026;13.752;2023-07-31T12:31:16;4.13;;;1.80;;
27489;SDS011;14925;51.026;13.752;2023-07-31T12:33:48;2.30;;;1.77;;
27489;SDS011;14925;51.026;13.752;2023-07-31T12:36:18;4.45;;;2.08;;
27489;SDS011;14925;51.026;13.752;2023-07-31T12:38:45;4.85;;;1.92;;
27489;SDS011;14925;51.026;13.752;2023-07-31T12:41:11;3.85;;;2.00;;
27489;SDS011;14925;51.026;13.752;2023-07-31T12:43:37;5.45;;;2.28;;
27489;SDS011;14925;51.026;13.752;2023-07-31T12:46:07;3.90;;;2.00;;
27489;SDS011;14925;51.026;13.752;2023-07-31T12:48:33;4.07;;;1.88;;
27489;SDS011;14925;51.026;13.752;2023-07-31T12:50:58;4.65;;;2.38;;
27489;SDS011;14925;51.026;13.752;2023-07-31T12:53:24;6.57;;;2.53;;
27489;SDS011;14925;51.026;13.752;2023-07-31T12:55:49;4.38;;;2.30;;
27489;SDS011;14925;51.026;13.752;2023-07-31T12:58:15;3.90;;;2.30;;
27489;SDS011;14925;51.026;13.752;2023-07-31T13:00:40;3.75;;;2.08;;
27489;SDS011;14925;51.026;13.752;2023-07-31T13:03:08;6.40;;;2.33;;
27489;SDS011;14925;51.026;13.752;2023-07-31T13:05:34;3.08;;;2.15;;
27489;SDS011;14925;51.026;13.752;2023-07-31T13:08:00;4.47;;;2.00;;
27489;SDS011;14925;51.026;13.752;2023-07-31T13:10:25;4.80;;;2.10;;
27489;SDS011;14925;51.026;13.752;2023-07-31T13:12:52;3.65;;;1.90;;
27489;SDS011;14925;51.026;13.752;2023-07-31T13:15:17;5.82;;;2.17;;
27489;SDS011;14925;51.026;13.752;2023-07-31T13:17:42;3.72;;;2.10;;
27489;SDS011;14925;51.026;13.752;2023-07-31T13:20:08;3.55;;;2.30;;
27489;SDS011;14925;51.026;13.752;2023-07-31T13:22:34;4.93;;;2.55;;
27489;SDS011;14925;51.026;13.752;2023-07-31T13:24:59;6.93;;;2.70;;
27489;SDS011;14925;51.026;13.752;2023-07-31T13:27:24;5.47;;;2.70;;
27489;SDS011;14925;51.026;13.752;2023-07-31T13:29:50;6.13;;;2.92;;
27489;SDS011;14925;51.026;13.752;2023-07-31T13:32:17;5.88;;;2.53;;
27489;SDS011;14925;51.026;13.752;2023-07-31T13:34:43;4.85;;;2.25;;
27489;SDS011;14925;51.026;13.752;2023-07-31T13:37:09;4.50;;;2.47;;
27489;SDS011;14925;51.026;13.752;2023-07-31T13:39:34;4.88;;;2.33;;
27489;SDS011;14925;51.026;13.752;2023-07-31T13:41:59;4.90;;;2.20;;
27489;SDS011;14925;51.026;13.752;2023-07-31T13:44:25;4.68;;;2.10;;
27489;SDS011;14925;51.026;13.752;2023-07-31T13:46:51;4.72;;;2.30;;
27489;SDS011;14925;51.026;13.752;2023-07-31T13:49:17;3.30;;;2.22;;
27489;SDS011;14925;51.026;13.752;2023-07-31T13:51:42;4.97;;;2.10;;
27489;SDS011;14925;51.026;13.752;2023-07-31T13:54:08;5.57;;;2.60;;
27489;SDS011;14925;51.026;13.752;2023-07-31T13:56:33;3.63;;;2.00;;
27489;SDS011;14925;51.026;13.752;2023-07-31T13:58:59;4.93;;;2.22;;
27489;SDS011;14925;51.026;13.752;2023-07-31T14:01:26;3.45;;;2.10;;
27489;SDS011;14925;51.026;13.752;2023-07-31T14:03:51;5.63;;;2.30;;
27489;SDS011;14925;51.026;13.752;2023-07-31T14:06:20;3.72;;;2.05;;
27489;SDS011;14925;51.026;13.752;2023-07-31T14:08:48;3.13;;;1.92;;
27489;SDS011;14925;51.026;13.752;2023-07-31T14:11:18;4.75;;;2.42;;
27489;SDS011;14925;51.026;13.752;2023-07-31T14:13:43;5.93;;;2.35;;
27489;SDS011;14925;51.026;13.752;2023-07-31T14:16:09;3.72;;;2.17;;
27489;SDS011;14925;51.026;13.752;2023-07-31T14:18:34;8.00;;;2.38;;
27489;SDS011;14925;51.026;13.752;2023-07-31T14:21:00;4.15;;;2.20;;
27489;SDS011;14925;51.026;13.752;2023-07-31T14:23:25;4.80;;;2.30;;
27489;SDS011;14925;51.026;13.752;2023-07-31T14:25:50;3.67;;;2.40;;
27489;SDS011;14925;51.026;13.752;2023-07-31T14:28:16;5.47;;;2.30;;
27489;SDS011;14925;51.026;13.752;2023-07-31T14:30:41;4.20;;;2.50;;
27489;SDS011;14925;51.026;13.752;2023-07-31T14:33:06;3.58;;;2.20;;
27489;SDS011;14925;51.026;13.752;2023-07-31T14:35:32;4.00;;;2.38;;
27489;SDS011;14925;51.026;13.752;2023-07-31T14:37:57;5.97;;;2.50;;
27489;SDS011;14925;51.026;13.752;2023-07-31T14:40:23;4.97;;;2.50;;
27489;SDS011;14925;51.026;13.752;2023-07-31T14:42:51;5.05;;;2.67;;
27489;SDS011;14925;51.026;13.752;2023-07-31T14:45:19;4.05;;;2.28;;
27489;SDS011;14925;51.026;13.752;2023-07-31T14:47:45;4.88;;;2.72;;
27489;SDS011;14925;51.026;13.752;2023-07-31T14:50:10;5.03;;;2.55;;
27489;SDS011;14925;51.026;13.752;2023-07-31T14:52:36;3.92;;;2.10;;